sensor_id;sensor_type;location;lat;lon;timestamp;P1;durP1;ratioP1;P2;durP2;ratioP2
55082;SDS011;40978;52.850;6.506;2022-10-22T00:00:34;15.77;;;8.02;;
55082;SDS011;40978;52.850;6.506;2022-10-22T00:03:00;9.60;;;7.00;;
55082;SDS011;40978;52.850;6.506;2022-10-22T00:05:25;9.93;;;6.88;;
55082;SDS011;40978;52.850;6.506;2022-10-22T00:07:51;12.70;;;7.72;;
55082;SDS011;40978;52.850;6.506;2022-10-22T00:10:17;10.80;;;6.72;;
55082;SDS011;40978;52.850;6.506;2022-10-22T00:12:43;12.15;;;6.82;;
55082;SDS011;40978;52.850;6.506;2022-10-22T00:15:09;11.95;;;6.95;;
55082;SDS011;40978;52.850;6.506;2022-10-22T00:17:35;9.88;;;6.13;;
55082;SDS011;40978;52.850;6.506;2022-10-22T00:20:01;11.15;;;6.38;;
55082;SDS011;40978;52.850;6.506;2022-10-22T00:22:28;7.95;;;6.38;;
55082;SDS011;40978;52.850;6.506;2022-10-22T00:24:53;12.00;;;6.15;;
55082;SDS011;40978;52.850;6.506;2022-10-22T00:27:19;9.27;;;6.95;;
55082;SDS011;40978;52.850;6.506;2022-10-22T00:29:45;9.20;;;6.93;;
55082;SDS011;40978;52.850;6.506;2022-10-22T00:32:10;10.52;;;7.13;;
55082;SDS011;40978;52.850;6.506;2022-10-22T00:34:36;14.82;;;8.73;;
55082;SDS011;40978;52.850;6.506;2022-10-22T00:37:02;14.82;;;8.00;;
55082;SDS011;40978;52.850;6.506;2022-10-22T00:39:27;13.38;;;8.13;;
55082;SDS011;40978;52.850;6.506;2022-10-22T00:41:54;9.80;;;7.32;;
55082;SDS011;40978;52.850;6.506;2022-10-22T00:47:24;12.65;;;8.48;;
55082;SDS011;40978;52.850;6.506;2022-10-22T00:49:51;11.35;;;8.23;;
55082;SDS011;40978;52.850;6.506;2022-10-22T00:52:20;12.27;;;8.27;;
55082;SDS011;40978;52.850;6.506;2022-10-22T00:54:46;12.13;;;7.88;;
55082;SDS011;40978;52.850;6.506;2022-10-22T00:57:12;10.88;;;8.07;;
55082;SDS011;40978;52.850;6.506;2022-10-22T00:59:39;12.60;;;8.57;;
55082;SDS011;40978;52.850;6.506;2022-10-22T01:02:05;13.57;;;9.43;;
55082;SDS011;40978;52.850;6.506;2022-10-22T01:04:31;14.82;;;8.90;;
55082;SDS011;40978;52.850;6.506;2022-10-22T01:06:56;11.45;;;8.40;;
55082;SDS011;40978;52.850;6.506;2022-10-22T01:17:44;16.52;;;8.75;;
55082;SDS011;40978;52.850;6.506;2022-10-22T01:31:12;14.20;;;8.20;;
55082;SDS011;40978;52.850;6.506;2022-10-22T01:33:41;14.70;;;8.70;;
55082;SDS011;40978;52.850;6.506;2022-10-22T01:36:11;14.25;;;9.32;;
55082;SDS011;40978;52.850;6.506;2022-10-22T01:38:38;18.30;;;9.35;;
55082;SDS011;40978;52.850;6.506;2022-10-22T01:41:05;20.02;;;10.23;;
55082;SDS011;40978;52.850;6.506;2022-10-22T01:43:31;12.75;;;9.55;;
55082;SDS011;40978;52.850;6.506;2022-10-22T01:45:58;17.42;;;10.43;;
55082;SDS011;40978;52.850;6.506;2022-10-22T02:02:38;26.70;;;14.00;;
55082;SDS011;40978;52.850;6.506;2022-10-22T02:05:12;15.43;;;11.90;;
55082;SDS011;40978;52.850;6.506;2022-10-22T02:08:01;23.92;;;13.43;;
55082;SDS011;40978;52.850;6.506;2022-10-22T02:11:04;24.90;;;13.57;;
55082;SDS011;40978;52.850;6.506;2022-10-22T02:13:34;17.48;;;11.50;;
55082;SDS011;40978;52.850;6.506;2022-10-22T02:18:32;19.95;;;11.98;;
55082;SDS011;40978;52.850;6.506;2022-10-22T02:21:02;12.40;;;9.88;;
55082;SDS011;40978;52.850;6.506;2022-10-22T02:23:30;23.40;;;11.95;;
55082;SDS011;40978;52.850;6.506;2022-10-22T02:25:59;19.13;;;11.73;;
55082;SDS011;40978;52.850;6.506;2022-10-22T02:28:35;19.67;;;11.45;;
55082;SDS011;40978;52.850;6.506;2022-10-22T02:31:23;21.73;;;11.85;;
55082;SDS011;40978;52.850;6.506;2022-10-22T02:33:52;25.17;;;12.57;;
55082;SDS011;40978;52.850;6.506;2022-10-22T02:36:21;17.42;;;10.60;;
55082;SDS011;40978;52.850;6.506;2022-10-22T02:38:48;19.35;;;11.50;;
55082;SDS011;40978;52.850;6.506;2022-10-22T02:41:16;24.73;;;13.30;;
55082;SDS011;40978;52.850;6.506;2022-10-22T02:43:44;23.08;;;13.65;;
55082;SDS011;40978;52.850;6.506;2022-10-22T02:46:14;21.35;;;13.65;;
55082;SDS011;40978;52.850;6.506;2022-10-22T02:48:40;18.85;;;11.77;;
55082;SDS011;40978;52.850;6.506;2022-10-22T02:51:05;20.92;;;13.15;;
55082;SDS011;40978;52.850;6.506;2022-10-22T02:53:31;16.45;;;11.35;;
55082;SDS011;40978;52.850;6.506;2022-10-22T02:55:57;20.80;;;12.35;;
55082;SDS011;40978;52.850;6.506;2022-10-22T02:58:23;18.23;;;11.50;;
55082;SDS011;40978;52.850;6.506;2022-10-22T03:00:49;19.08;;;11.48;;
55082;SDS011;40978;52.850;6.506;2022-10-22T03:03:14;19.67;;;12.40;;
55082;SDS011;40978;52.850;6.506;2022-10-22T03:05:40;12.32;;;10.95;;
55082;SDS011;40978;52.850;6.506;2022-10-22T03:08:06;21.88;;;11.65;;
55082;SDS011;40978;52.850;6.506;2022-10-22T03:10:32;17.17;;;10.57;;
55082;SDS011;40978;52.850;6.506;2022-10-22T03:12:57;17.90;;;11.43;;
55082;SDS011;40978;52.850;6.506;2022-10-22T03:15:23;25.33;;;13.20;;
55082;SDS011;40978;52.850;6.506;2022-10-22T03:17:49;18.92;;;11.95;;
55082;SDS011;40978;52.850;6.506;2022-10-22T03:20:14;17.63;;;12.82;;
55082;SDS011;40978;52.850;6.506;2022-10-22T03:22:40;26.13;;;14.88;;
55082;SDS011;40978;52.850;6.506;2022-10-22T03:25:08;24.42;;;14.27;;
55082;SDS011;40978;52.850;6.506;2022-10-22T03:27:37;21.15;;;12.65;;
55082;SDS011;40978;52.850;6.506;2022-10-22T03:30:04;20.02;;;11.60;;
55082;SDS011;40978;52.850;6.506;2022-10-22T03:32:31;20.10;;;12.60;;
55082;SDS011;40978;52.850;6.506;2022-10-22T03:34:57;21.83;;;13.88;;
55082;SDS011;40978;52.850;6.506;2022-10-22T03:37:22;17.27;;;12.40;;
55082;SDS011;40978;52.850;6.506;2022-10-22T03:39:49;23.02;;;13.48;;
55082;SDS011;40978;52.850;6.506;2022-10-22T03:42:16;30.15;;;14.68;;
55082;SDS011;40978;52.850;6.506;2022-10-22T03:44:41;24.02;;;13.88;;
55082;SDS011;40978;52.850;6.506;2022-10-22T03:47:07;21.33;;;13.60;;
55082;SDS011;40978;52.850;6.506;2022-10-22T03:49:33;19.35;;;13.07;;
55082;SDS011;40978;52.850;6.506;2022-10-22T03:52:17;19.98;;;13.65;;
55082;SDS011;40978;52.850;6.506;2022-10-22T03:54:43;24.08;;;14.75;;
55082;SDS011;40978;52.850;6.506;2022-10-22T03:57:09;23.08;;;14.55;;
55082;SDS011;40978;52.850;6.506;2022-10-22T03:59:35;22.77;;;13.57;;
55082;SDS011;40978;52.850;6.506;2022-10-22T04:02:02;24.20;;;14.10;;
55082;SDS011;40978;52.850;6.506;2022-10-22T04:04:28;23.08;;;13.55;;
55082;SDS011;40978;52.850;6.506;2022-10-22T04:06:54;20.17;;;13.65;;
55082;SDS011;40978;52.850;6.506;2022-10-22T04:09:20;23.90;;;14.07;;
55082;SDS011;40978;52.850;6.506;2022-10-22T04:11:46;21.75;;;14.90;;
55082;SDS011;40978;52.850;6.506;2022-10-22T04:14:11;23.35;;;13.98;;
55082;SDS011;40978;52.850;6.506;2022-10-22T04:16:38;24.65;;;15.38;;
55082;SDS011;40978;52.850;6.506;2022-10-22T04:19:05;28.75;;;15.73;;
55082;SDS011;40978;52.850;6.506;2022-10-22T04:21:30;29.70;;;16.77;;
55082;SDS011;40978;52.850;6.506;2022-10-22T04:23:56;25.58;;;15.02;;
55082;SDS011;40978;52.850;6.506;2022-10-22T04:26:22;30.80;;;16.25;;
55082;SDS011;40978;52.850;6.506;2022-10-22T04:28:49;20.70;;;14.43;;
55082;SDS011;40978;52.850;6.506;2022-10-22T04:31:18;27.52;;;15.75;;
55082;SDS011;40978;52.850;6.506;2022-10-22T04:33:45;22.52;;;15.65;;
55082;SDS011;40978;52.850;6.506;2022-10-22T04:38:39;22.92;;;15.73;;
55082;SDS011;40978;52.850;6.506;2022-10-22T04:43:39;24.73;;;15.38;;
55082;SDS011;40978;52.850;6.506;2022-10-22T04:46:05;29.52;;;16.58;;
55082;SDS011;40978;52.850;6.506;2022-10-22T04:48:33;22.50;;;14.80;;
55082;SDS011;40978;52.850;6.506;2022-10-22T04:51:03;21.33;;;14.75;;
55082;SDS011;40978;52.850;6.506;2022-10-22T04:53:30;22.88;;;16.23;;
55082;SDS011;40978;52.850;6.506;2022-10-22T04:58:45;31.65;;;18.30;;
55082;SDS011;40978;52.850;6.506;2022-10-22T05:01:21;30.10;;;17.17;;
55082;SDS011;40978;52.850;6.506;2022-10-22T05:03:49;36.70;;;19.08;;
55082;SDS011;40978;52.850;6.506;2022-10-22T05:06:16;26.92;;;15.98;;
55082;SDS011;40978;52.850;6.506;2022-10-22T05:08:44;22.13;;;14.70;;
55082;SDS011;40978;52.850;6.506;2022-10-22T05:11:14;31.10;;;17.73;;
55082;SDS011;40978;52.850;6.506;2022-10-22T05:13:47;25.85;;;15.80;;
55082;SDS011;40978;52.850;6.506;2022-10-22T05:16:12;30.15;;;17.98;;
55082;SDS011;40978;52.850;6.506;2022-10-22T05:18:39;21.50;;;15.43;;
55082;SDS011;40978;52.850;6.506;2022-10-22T05:21:07;27.60;;;15.85;;
55082;SDS011;40978;52.850;6.506;2022-10-22T05:23:38;32.33;;;16.80;;
55082;SDS011;40978;52.850;6.506;2022-10-22T05:26:04;26.95;;;15.77;;
55082;SDS011;40978;52.850;6.506;2022-10-22T05:28:31;24.05;;;15.77;;
55082;SDS011;40978;52.850;6.506;2022-10-22T05:30:58;27.48;;;17.42;;
55082;SDS011;40978;52.850;6.506;2022-10-22T05:33:25;22.05;;;13.93;;
55082;SDS011;40978;52.850;6.506;2022-10-22T05:35:51;24.60;;;16.23;;
55082;SDS011;40978;52.850;6.506;2022-10-22T05:38:17;20.40;;;14.93;;
55082;SDS011;40978;52.850;6.506;2022-10-22T05:40:43;27.70;;;15.65;;
55082;SDS011;40978;52.850;6.506;2022-10-22T05:43:09;23.20;;;15.43;;
55082;SDS011;40978;52.850;6.506;2022-10-22T05:45:38;23.52;;;15.40;;
55082;SDS011;40978;52.850;6.506;2022-10-22T05:48:05;21.85;;;14.52;;
55082;SDS011;40978;52.850;6.506;2022-10-22T05:50:34;21.50;;;15.30;;
55082;SDS011;40978;52.850;6.506;2022-10-22T05:53:01;21.65;;;13.68;;
55082;SDS011;40978;52.850;6.506;2022-10-22T05:55:27;20.65;;;14.57;;
55082;SDS011;40978;52.850;6.506;2022-10-22T05:57:53;19.73;;;13.18;;
55082;SDS011;40978;52.850;6.506;2022-10-22T06:00:19;25.00;;;13.85;;
55082;SDS011;40978;52.850;6.506;2022-10-22T06:02:48;18.20;;;13.07;;
55082;SDS011;40978;52.850;6.506;2022-10-22T06:05:14;15.73;;;12.32;;
55082;SDS011;40978;52.850;6.506;2022-10-22T06:07:40;19.33;;;13.05;;
55082;SDS011;40978;52.850;6.506;2022-10-22T06:10:08;24.02;;;12.98;;
55082;SDS011;40978;52.850;6.506;2022-10-22T06:12:47;21.00;;;13.50;;
55082;SDS011;40978;52.850;6.506;2022-10-22T06:15:15;19.77;;;13.07;;
55082;SDS011;40978;52.850;6.506;2022-10-22T06:17:45;20.70;;;13.25;;
55082;SDS011;40978;52.850;6.506;2022-10-22T06:20:11;19.30;;;12.73;;
55082;SDS011;40978;52.850;6.506;2022-10-22T06:22:37;22.92;;;13.45;;
55082;SDS011;40978;52.850;6.506;2022-10-22T06:25:04;19.60;;;12.57;;
55082;SDS011;40978;52.850;6.506;2022-10-22T06:27:32;20.25;;;12.15;;
55082;SDS011;40978;52.850;6.506;2022-10-22T06:29:58;22.92;;;12.63;;
55082;SDS011;40978;52.850;6.506;2022-10-22T06:32:24;23.73;;;12.70;;
55082;SDS011;40978;52.850;6.506;2022-10-22T06:34:49;18.95;;;11.85;;
55082;SDS011;40978;52.850;6.506;2022-10-22T06:37:16;20.60;;;11.70;;
55082;SDS011;40978;52.850;6.506;2022-10-22T06:39:41;20.30;;;11.93;;
55082;SDS011;40978;52.850;6.506;2022-10-22T06:42:07;19.23;;;11.13;;
55082;SDS011;40978;52.850;6.506;2022-10-22T06:44:33;19.48;;;11.63;;
55082;SDS011;40978;52.850;6.506;2022-10-22T06:46:59;21.05;;;10.50;;
55082;SDS011;40978;52.850;6.506;2022-10-22T06:49:24;22.98;;;10.98;;
55082;SDS011;40978;52.850;6.506;2022-10-22T06:51:51;18.33;;;10.80;;
55082;SDS011;40978;52.850;6.506;2022-10-22T06:54:17;17.58;;;10.32;;
55082;SDS011;40978;52.850;6.506;2022-10-22T06:56:43;21.73;;;11.00;;
55082;SDS011;40978;52.850;6.506;2022-10-22T06:59:09;14.80;;;10.13;;
55082;SDS011;40978;52.850;6.506;2022-10-22T07:01:34;21.83;;;11.20;;
55082;SDS011;40978;52.850;6.506;2022-10-22T07:04:01;13.98;;;9.13;;
55082;SDS011;40978;52.850;6.506;2022-10-22T07:06:27;20.25;;;10.57;;
55082;SDS011;40978;52.850;6.506;2022-10-22T07:08:54;18.63;;;9.80;;
55082;SDS011;40978;52.850;6.506;2022-10-22T07:11:22;16.33;;;9.98;;
55082;SDS011;40978;52.850;6.506;2022-10-22T07:13:57;19.63;;;9.70;;
55082;SDS011;40978;52.850;6.506;2022-10-22T07:16:23;19.92;;;9.88;;
55082;SDS011;40978;52.850;6.506;2022-10-22T07:18:49;16.40;;;9.90;;
55082;SDS011;40978;52.850;6.506;2022-10-22T07:21:16;14.80;;;8.80;;
55082;SDS011;40978;52.850;6.506;2022-10-22T07:23:43;18.65;;;8.88;;
55082;SDS011;40978;52.850;6.506;2022-10-22T07:26:10;16.30;;;8.50;;
55082;SDS011;40978;52.850;6.506;2022-10-22T07:28:37;16.98;;;8.57;;
55082;SDS011;40978;52.850;6.506;2022-10-22T07:31:05;15.05;;;7.85;;
55082;SDS011;40978;52.850;6.506;2022-10-22T07:33:32;12.40;;;7.68;;
55082;SDS011;40978;52.850;6.506;2022-10-22T07:35:59;7.93;;;5.72;;
55082;SDS011;40978;52.850;6.506;2022-10-22T07:38:27;10.48;;;6.10;;
55082;SDS011;40978;52.850;6.506;2022-10-22T07:40:53;10.70;;;6.32;;
55082;SDS011;40978;52.850;6.506;2022-10-22T07:43:19;10.43;;;5.53;;
55082;SDS011;40978;52.850;6.506;2022-10-22T07:45:45;14.02;;;5.90;;
55082;SDS011;40978;52.850;6.506;2022-10-22T07:48:11;15.68;;;5.68;;
55082;SDS011;40978;52.850;6.506;2022-10-22T07:50:37;12.73;;;5.65;;
55082;SDS011;40978;52.850;6.506;2022-10-22T07:53:02;11.80;;;5.40;;
55082;SDS011;40978;52.850;6.506;2022-10-22T07:55:28;13.35;;;5.82;;
55082;SDS011;40978;52.850;6.506;2022-10-22T07:57:54;12.43;;;5.30;;
55082;SDS011;40978;52.850;6.506;2022-10-22T08:00:19;12.52;;;5.57;;
55082;SDS011;40978;52.850;6.506;2022-10-22T08:02:45;12.88;;;5.35;;
55082;SDS011;40978;52.850;6.506;2022-10-22T08:05:11;9.98;;;4.90;;
55082;SDS011;40978;52.850;6.506;2022-10-22T08:07:40;10.18;;;5.10;;
55082;SDS011;40978;52.850;6.506;2022-10-22T08:10:07;11.63;;;4.80;;
55082;SDS011;40978;52.850;6.506;2022-10-22T08:12:33;7.70;;;4.53;;
55082;SDS011;40978;52.850;6.506;2022-10-22T08:14:59;11.50;;;5.57;;
55082;SDS011;40978;52.850;6.506;2022-10-22T08:17:25;12.85;;;4.60;;
55082;SDS011;40978;52.850;6.506;2022-10-22T08:19:51;10.10;;;4.07;;
55082;SDS011;40978;52.850;6.506;2022-10-22T08:22:16;12.30;;;5.07;;
55082;SDS011;40978;52.850;6.506;2022-10-22T08:24:42;8.80;;;4.55;;
55082;SDS011;40978;52.850;6.506;2022-10-22T08:27:08;10.80;;;4.05;;
55082;SDS011;40978;52.850;6.506;2022-10-22T08:29:33;10.82;;;3.95;;
55082;SDS011;40978;52.850;6.506;2022-10-22T08:31:59;14.07;;;4.07;;
55082;SDS011;40978;52.850;6.506;2022-10-22T08:34:27;10.88;;;4.00;;
55082;SDS011;40978;52.850;6.506;2022-10-22T08:36:53;11.13;;;3.53;;
55082;SDS011;40978;52.850;6.506;2022-10-22T08:39:18;10.77;;;3.90;;
55082;SDS011;40978;52.850;6.506;2022-10-22T08:44:54;11.82;;;3.20;;
55082;SDS011;40978;52.850;6.506;2022-10-22T08:50:34;8.30;;;3.25;;
55082;SDS011;40978;52.850;6.506;2022-10-22T08:53:07;6.88;;;2.90;;
55082;SDS011;40978;52.850;6.506;2022-10-22T08:55:38;9.32;;;3.30;;
55082;SDS011;40978;52.850;6.506;2022-10-22T08:58:13;7.78;;;2.95;;
55082;SDS011;40978;52.850;6.506;2022-10-22T09:01:04;8.77;;;2.80;;
55082;SDS011;40978;52.850;6.506;2022-10-22T09:03:40;9.52;;;2.80;;
55082;SDS011;40978;52.850;6.506;2022-10-22T09:06:14;9.97;;;2.37;;
55082;SDS011;40978;52.850;6.506;2022-10-22T09:08:41;9.18;;;2.75;;
55082;SDS011;40978;52.850;6.506;2022-10-22T09:11:13;9.93;;;2.67;;
55082;SDS011;40978;52.850;6.506;2022-10-22T09:13:43;7.63;;;2.40;;
55082;SDS011;40978;52.850;6.506;2022-10-22T09:16:17;9.63;;;2.72;;
55082;SDS011;40978;52.850;6.506;2022-10-22T09:19:04;8.98;;;2.47;;
55082;SDS011;40978;52.850;6.506;2022-10-22T09:22:08;8.52;;;2.47;;
55082;SDS011;40978;52.850;6.506;2022-10-22T09:24:38;9.52;;;3.00;;
55082;SDS011;40978;52.850;6.506;2022-10-22T09:27:13;11.48;;;3.08;;
55082;SDS011;40978;52.850;6.506;2022-10-22T09:29:44;9.30;;;2.60;;
55082;SDS011;40978;52.850;6.506;2022-10-22T09:32:12;12.30;;;2.78;;
55082;SDS011;40978;52.850;6.506;2022-10-22T09:34:38;12.45;;;2.90;;
55082;SDS011;40978;52.850;6.506;2022-10-22T09:37:08;11.52;;;2.88;;
55082;SDS011;40978;52.850;6.506;2022-10-22T09:39:38;11.70;;;2.90;;
55082;SDS011;40978;52.850;6.506;2022-10-22T09:42:08;10.60;;;2.60;;
55082;SDS011;40978;52.850;6.506;2022-10-22T09:44:38;13.05;;;3.03;;
55082;SDS011;40978;52.850;6.506;2022-10-22T09:47:24;9.77;;;2.75;;
55082;SDS011;40978;52.850;6.506;2022-10-22T09:50:25;7.65;;;2.58;;
55082;SDS011;40978;52.850;6.506;2022-10-22T09:53:21;11.80;;;2.78;;
55082;SDS011;40978;52.850;6.506;2022-10-22T09:55:51;11.63;;;3.15;;
55082;SDS011;40978;52.850;6.506;2022-10-22T09:58:19;11.82;;;2.95;;
55082;SDS011;40978;52.850;6.506;2022-10-22T10:00:47;12.05;;;3.20;;
55082;SDS011;40978;52.850;6.506;2022-10-22T10:03:21;14.20;;;3.13;;
55082;SDS011;40978;52.850;6.506;2022-10-22T10:05:50;8.25;;;3.20;;
55082;SDS011;40978;52.850;6.506;2022-10-22T10:08:18;12.40;;;3.40;;
55082;SDS011;40978;52.850;6.506;2022-10-22T10:10:46;11.75;;;3.55;;
55082;SDS011;40978;52.850;6.506;2022-10-22T10:13:23;14.02;;;3.53;;
55082;SDS011;40978;52.850;6.506;2022-10-22T10:16:07;12.32;;;3.50;;
55082;SDS011;40978;52.850;6.506;2022-10-22T10:18:43;7.97;;;3.00;;
55082;SDS011;40978;52.850;6.506;2022-10-22T10:21:18;10.50;;;3.10;;
55082;SDS011;40978;52.850;6.506;2022-10-22T10:27:19;11.48;;;3.28;;
55082;SDS011;40978;52.850;6.506;2022-10-22T10:35:57;6.93;;;2.85;;
55082;SDS011;40978;52.850;6.506;2022-10-22T10:46:45;9.52;;;3.03;;
55082;SDS011;40978;52.850;6.506;2022-10-22T10:49:24;10.82;;;3.38;;
55082;SDS011;40978;52.850;6.506;2022-10-22T10:51:59;14.07;;;3.53;;
55082;SDS011;40978;52.850;6.506;2022-10-22T10:57:38;12.30;;;4.10;;
55082;SDS011;40978;52.850;6.506;2022-10-22T11:00:16;9.38;;;3.55;;
55082;SDS011;40978;52.850;6.506;2022-10-22T11:07:53;12.20;;;4.80;;
55082;SDS011;40978;52.850;6.506;2022-10-22T11:10:39;12.93;;;5.32;;
55082;SDS011;40978;52.850;6.506;2022-10-22T11:13:10;13.20;;;5.25;;
55082;SDS011;40978;52.850;6.506;2022-10-22T11:23:52;12.85;;;4.95;;
55082;SDS011;40978;52.850;6.506;2022-10-22T11:29:06;9.57;;;4.65;;
55082;SDS011;40978;52.850;6.506;2022-10-22T11:31:39;13.07;;;4.70;;
55082;SDS011;40978;52.850;6.506;2022-10-22T11:34:10;11.60;;;4.97;;
55082;SDS011;40978;52.850;6.506;2022-10-22T11:36:50;11.18;;;4.38;;
55082;SDS011;40978;52.850;6.506;2022-10-22T11:42:11;12.23;;;4.30;;
55082;SDS011;40978;52.850;6.506;2022-10-22T11:45:00;14.30;;;4.43;;
55082;SDS011;40978;52.850;6.506;2022-10-22T11:47:32;12.30;;;4.28;;
55082;SDS011;40978;52.850;6.506;2022-10-22T11:52:48;10.73;;;4.00;;
55082;SDS011;40978;52.850;6.506;2022-10-22T11:55:51;12.35;;;3.88;;
55082;SDS011;40978;52.850;6.506;2022-10-22T12:06:18;11.98;;;3.83;;
55082;SDS011;40978;52.850;6.506;2022-10-22T12:16:42;14.60;;;3.53;;
55082;SDS011;40978;52.850;6.506;2022-10-22T12:21:36;10.98;;;4.20;;
55082;SDS011;40978;52.850;6.506;2022-10-22T12:24:03;9.32;;;3.05;;
55082;SDS011;40978;52.850;6.506;2022-10-22T12:26:31;11.05;;;3.47;;
55082;SDS011;40978;52.850;6.506;2022-10-22T12:29:00;12.13;;;3.70;;
55082;SDS011;40978;52.850;6.506;2022-10-22T12:31:34;11.02;;;3.53;;
55082;SDS011;40978;52.850;6.506;2022-10-22T12:34:01;9.73;;;3.80;;
55082;SDS011;40978;52.850;6.506;2022-10-22T12:36:28;13.45;;;3.42;;
55082;SDS011;40978;52.850;6.506;2022-10-22T12:39:02;12.32;;;3.92;;
55082;SDS011;40978;52.850;6.506;2022-10-22T12:41:36;11.57;;;3.78;;
55082;SDS011;40978;52.850;6.506;2022-10-22T12:44:03;10.43;;;3.75;;
55082;SDS011;40978;52.850;6.506;2022-10-22T12:46:31;11.18;;;3.90;;
55082;SDS011;40978;52.850;6.506;2022-10-22T12:48:58;12.57;;;3.30;;
55082;SDS011;40978;52.850;6.506;2022-10-22T12:51:26;12.80;;;4.15;;
55082;SDS011;40978;52.850;6.506;2022-10-22T12:53:53;12.55;;;4.68;;
55082;SDS011;40978;52.850;6.506;2022-10-22T12:56:31;10.68;;;4.03;;
55082;SDS011;40978;52.850;6.506;2022-10-22T13:01:26;10.48;;;4.15;;
55082;SDS011;40978;52.850;6.506;2022-10-22T13:05:05;17.45;;;5.03;;
55082;SDS011;40978;52.850;6.506;2022-10-22T13:07:25;15.32;;;4.15;;
55082;SDS011;40978;52.850;6.506;2022-10-22T13:10:14;17.42;;;4.13;;
55082;SDS011;40978;52.850;6.506;2022-10-22T13:12:47;9.75;;;1.98;;
55082;SDS011;40978;52.850;6.506;2022-10-22T13:15:35;6.53;;;1.67;;
55082;SDS011;40978;52.850;6.506;2022-10-22T13:18:04;9.32;;;2.15;;
55082;SDS011;40978;52.850;6.506;2022-10-22T13:20:30;7.00;;;1.98;;
55082;SDS011;40978;52.850;6.506;2022-10-22T13:22:56;11.13;;;2.17;;
55082;SDS011;40978;52.850;6.506;2022-10-22T13:28:01;8.05;;;2.45;;
55082;SDS011;40978;52.850;6.506;2022-10-22T13:30:49;8.00;;;2.47;;
55082;SDS011;40978;52.850;6.506;2022-10-22T13:33:39;10.88;;;2.70;;
55082;SDS011;40978;52.850;6.506;2022-10-22T13:36:08;9.68;;;2.35;;
55082;SDS011;40978;52.850;6.506;2022-10-22T13:38:40;7.40;;;2.08;;
55082;SDS011;40978;52.850;6.506;2022-10-22T13:44:02;10.27;;;2.25;;
55082;SDS011;40978;52.850;6.506;2022-10-22T13:46:27;10.45;;;2.70;;
55082;SDS011;40978;52.850;6.506;2022-10-22T13:48:54;9.27;;;2.35;;
55082;SDS011;40978;52.850;6.506;2022-10-22T13:51:21;11.45;;;2.80;;
55082;SDS011;40978;52.850;6.506;2022-10-22T13:54:02;9.82;;;2.30;;
55082;SDS011;40978;52.850;6.506;2022-10-22T13:56:28;9.40;;;1.85;;
55082;SDS011;40978;52.850;6.506;2022-10-22T13:58:54;7.30;;;1.63;;
55082;SDS011;40978;52.850;6.506;2022-10-22T14:01:21;6.78;;;1.48;;
55082;SDS011;40978;52.850;6.506;2022-10-22T14:03:49;8.90;;;1.63;;
55082;SDS011;40978;52.850;6.506;2022-10-22T14:06:17;10.98;;;1.88;;
55082;SDS011;40978;52.850;6.506;2022-10-22T14:08:44;5.82;;;1.40;;
55082;SDS011;40978;52.850;6.506;2022-10-22T14:11:12;7.25;;;1.55;;
55082;SDS011;40978;52.850;6.506;2022-10-22T14:13:38;8.80;;;2.00;;
55082;SDS011;40978;52.850;6.506;2022-10-22T14:16:05;11.10;;;1.70;;
55082;SDS011;40978;52.850;6.506;2022-10-22T14:18:32;8.52;;;1.92;;
55082;SDS011;40978;52.850;6.506;2022-10-22T14:20:59;7.80;;;1.23;;
55082;SDS011;40978;52.850;6.506;2022-10-22T14:23:32;8.07;;;1.17;;
55082;SDS011;40978;52.850;6.506;2022-10-22T14:25:58;8.77;;;1.67;;
55082;SDS011;40978;52.850;6.506;2022-10-22T14:28:24;9.93;;;1.45;;
55082;SDS011;40978;52.850;6.506;2022-10-22T14:30:50;11.68;;;1.70;;
55082;SDS011;40978;52.850;6.506;2022-10-22T14:33:17;8.25;;;1.17;;
55082;SDS011;40978;52.850;6.506;2022-10-22T14:35:48;8.65;;;1.75;;
55082;SDS011;40978;52.850;6.506;2022-10-22T14:38:14;7.50;;;1.20;;
55082;SDS011;40978;52.850;6.506;2022-10-22T14:40:40;8.40;;;1.48;;
55082;SDS011;40978;52.850;6.506;2022-10-22T14:46:05;9.38;;;1.60;;
55082;SDS011;40978;52.850;6.506;2022-10-22T14:48:30;10.02;;;1.98;;
55082;SDS011;40978;52.850;6.506;2022-10-22T14:50:56;8.88;;;1.60;;
55082;SDS011;40978;52.850;6.506;2022-10-22T14:53:22;12.25;;;1.80;;
55082;SDS011;40978;52.850;6.506;2022-10-22T14:55:47;16.80;;;2.00;;
55082;SDS011;40978;52.850;6.506;2022-10-22T14:58:15;11.00;;;2.05;;
55082;SDS011;40978;52.850;6.506;2022-10-22T15:00:41;10.43;;;1.70;;
55082;SDS011;40978;52.850;6.506;2022-10-22T15:03:07;7.68;;;1.58;;
55082;SDS011;40978;52.850;6.506;2022-10-22T15:05:33;15.43;;;1.77;;
55082;SDS011;40978;52.850;6.506;2022-10-22T15:08:00;13.35;;;2.17;;
55082;SDS011;40978;52.850;6.506;2022-10-22T15:10:26;18.70;;;1.90;;
55082;SDS011;40978;52.850;6.506;2022-10-22T15:12:52;10.57;;;1.55;;
55082;SDS011;40978;52.850;6.506;2022-10-22T15:15:17;15.02;;;2.00;;
55082;SDS011;40978;52.850;6.506;2022-10-22T15:17:43;14.95;;;2.50;;
55082;SDS011;40978;52.850;6.506;2022-10-22T15:20:09;10.43;;;1.58;;
55082;SDS011;40978;52.850;6.506;2022-10-22T15:22:34;15.32;;;2.05;;
55082;SDS011;40978;52.850;6.506;2022-10-22T15:25:01;15.23;;;1.77;;
55082;SDS011;40978;52.850;6.506;2022-10-22T15:27:29;16.95;;;2.50;;
55082;SDS011;40978;52.850;6.506;2022-10-22T15:29:55;13.75;;;2.20;;
55082;SDS011;40978;52.850;6.506;2022-10-22T15:32:23;18.27;;;2.00;;
55082;SDS011;40978;52.850;6.506;2022-10-22T15:34:51;11.90;;;1.88;;
55082;SDS011;40978;52.850;6.506;2022-10-22T15:37:18;12.63;;;1.80;;
55082;SDS011;40978;52.850;6.506;2022-10-22T15:39:44;12.85;;;1.75;;
55082;SDS011;40978;52.850;6.506;2022-10-22T15:42:10;11.80;;;1.77;;
55082;SDS011;40978;52.850;6.506;2022-10-22T15:44:36;12.40;;;2.13;;
55082;SDS011;40978;52.850;6.506;2022-10-22T15:47:04;14.63;;;2.28;;
55082;SDS011;40978;52.850;6.506;2022-10-22T15:49:34;16.60;;;2.45;;
55082;SDS011;40978;52.850;6.506;2022-10-22T15:52:02;13.63;;;2.63;;
55082;SDS011;40978;52.850;6.506;2022-10-22T15:54:29;11.38;;;2.08;;
55082;SDS011;40978;52.850;6.506;2022-10-22T15:56:55;14.77;;;2.88;;
55082;SDS011;40978;52.850;6.506;2022-10-22T15:59:22;18.67;;;2.45;;
55082;SDS011;40978;52.850;6.506;2022-10-22T16:01:48;12.45;;;2.13;;
55082;SDS011;40978;52.850;6.506;2022-10-22T16:04:14;9.10;;;1.75;;
55082;SDS011;40978;52.850;6.506;2022-10-22T16:06:44;10.30;;;1.80;;
55082;SDS011;40978;52.850;6.506;2022-10-22T16:09:20;16.35;;;2.22;;
55082;SDS011;40978;52.850;6.506;2022-10-22T16:11:47;13.65;;;2.20;;
55082;SDS011;40978;52.850;6.506;2022-10-22T16:14:14;12.90;;;2.08;;
55082;SDS011;40978;52.850;6.506;2022-10-22T16:16:41;12.93;;;1.88;;
55082;SDS011;40978;52.850;6.506;2022-10-22T16:19:18;9.65;;;3.17;;
55082;SDS011;40978;52.850;6.506;2022-10-22T16:21:47;13.65;;;2.03;;
55082;SDS011;40978;52.850;6.506;2022-10-22T16:24:14;11.68;;;1.60;;
55082;SDS011;40978;52.850;6.506;2022-10-22T16:26:40;14.27;;;2.20;;
55082;SDS011;40978;52.850;6.506;2022-10-22T16:29:06;13.30;;;1.80;;
55082;SDS011;40978;52.850;6.506;2022-10-22T16:31:34;22.02;;;9.55;;
55082;SDS011;40978;52.850;6.506;2022-10-22T16:34:00;16.02;;;7.25;;
55082;SDS011;40978;52.850;6.506;2022-10-22T16:36:25;139.13;;;113.07;;
55082;SDS011;40978;52.850;6.506;2022-10-22T16:38:51;118.03;;;101.68;;
55082;SDS011;40978;52.850;6.506;2022-10-22T16:41:21;90.10;;;72.32;;
55082;SDS011;40978;52.850;6.506;2022-10-22T16:43:48;66.75;;;48.17;;
55082;SDS011;40978;52.850;6.506;2022-10-22T16:46:16;40.42;;;29.25;;
55082;SDS011;40978;52.850;6.506;2022-10-22T16:48:47;29.30;;;19.38;;